createdAt,value
2023-03-21T00:00:35.808Z,60353.73
2023-03-21T00:01:38.481Z,60587.64
2023-03-21T00:02:41.334Z,60462.15
2023-03-21T00:03:44.182Z,59821.70
2023-03-21T00:04:52.311Z,59425.23
2023-03-21T00:05:51.368Z,59455.34
2023-03-21T00:06:54.012Z,59388.09
2023-03-21T00:07:56.649Z,59275.68
2023-03-21T00:08:59.239Z,60184.07
2023-03-21T00:10:14.334Z,62465.49
2023-03-21T00:11:06.504Z,61877.94
2023-03-21T00:12:09.377Z,59858.84
2023-03-21T00:13:12.250Z,58716.70
2023-03-21T00:14:14.923Z,57433.45
2023-03-21T00:15:20.594Z,57949.11
2023-03-21T00:16:29.829Z,57755.48
2023-03-21T00:17:26.717Z,56131.56
2023-03-21T00:18:29.291Z,55084.74
2023-03-21T00:19:32.261Z,54939.37
2023-03-21T00:20:35.139Z,53637.30
2023-03-21T00:21:49.160Z,54819.07
2023-03-21T00:22:41.935Z,55533.92
2023-03-21T00:23:44.626Z,55381.52
2023-03-21T00:24:47.248Z,56532.71
2023-03-21T00:25:50.337Z,55683.32
2023-03-21T00:26:53.737Z,52398.77
2023-03-21T00:28:07.463Z,52048.13
2023-03-21T00:29:00.699Z,49882.83
2023-03-21T00:30:03.374Z,52122.26
2023-03-21T00:31:06.337Z,51507.20
2023-03-21T00:32:08.806Z,51328.90
2023-03-21T00:33:21.973Z,50826.12
2023-03-21T00:34:17.648Z,52152.32
2023-03-21T00:35:53.425Z,51058.48
2023-03-21T00:36:24.440Z,51259.79
2023-03-21T00:37:27.068Z,48127.03
2023-03-21T00:38:29.847Z,47590.63
2023-03-21T00:39:32.519Z,49772.70
2023-03-21T00:40:40.843Z,48352.21
2023-03-21T00:41:42.961Z,43554.99
2023-03-21T00:42:43.901Z,41135.59
2023-03-21T00:43:46.698Z,40246.55
2023-03-21T00:44:49.649Z,39359.71
2023-03-21T00:45:52.636Z,38444.12
2023-03-21T00:47:06.453Z,38602.86
2023-03-21T00:48:00.128Z,37779.28
2023-03-21T00:49:02.893Z,38410.18
2023-03-21T00:50:05.767Z,38127.66
2023-03-21T00:51:08.537Z,39914.96
2023-03-21T00:52:27.589Z,36844.09
2023-03-21T00:53:15.415Z,36585.63
2023-03-21T00:54:18.082Z,36459.90
2023-03-21T00:55:20.545Z,37779.28
2023-03-21T00:56:23.648Z,37313.15
2023-03-21T00:57:37.936Z,37585.63
2023-03-21T00:58:31.219Z,37777.28
2023-03-21T00:59:34.508Z,38064.77
2023-03-21T01:00:37.200Z,41219.51
2023-03-21T01:01:39.937Z,40641.10
2023-03-21T01:02:43.412Z,38708.69
2023-03-21T01:03:46.205Z,38932.34
2023-03-21T01:04:48.876Z,39792.12
2023-03-21T01:05:51.440Z,40660.08
2023-03-21T01:06:54.020Z,42244.68
2023-03-21T01:07:58.830Z,43731.93
2023-03-21T01:09:01.813Z,45327.77
2023-03-21T01:10:04.394Z,44623.76
2023-03-21T01:11:07.044Z,44117.84
2023-03-21T01:12:09.613Z,44353.79
2023-03-21T01:13:12.491Z,42762.35
2023-03-21T01:14:22.429Z,44467.78
2023-03-21T01:15:19.776Z,41385.36
2023-03-21T01:16:22.615Z,41553.21
2023-03-21T01:17:25.431Z,38555.94
2023-03-21T01:18:28.401Z,38528.98
2023-03-21T01:19:48.331Z,38997.25
2023-03-21T01:20:35.582Z,37418.95
2023-03-21T01:21:38.695Z,38936.34
2023-03-21T01:22:41.333Z,38702.70
2023-03-21T01:23:43.994Z,39726.21
2023-03-21T01:24:55.094Z,41770.03
2023-03-21T01:25:51.184Z,38123.66
2023-03-21T01:26:53.851Z,38569.91
2023-03-21T01:27:56.620Z,37353.08
2023-03-21T01:28:59.392Z,40961.77
2023-03-21T01:30:02.596Z,34815.80
2023-03-21T01:31:05.604Z,36838.11
2023-03-21T01:32:08.536Z,37122.53
2023-03-21T01:33:11.199Z,38762.61
2023-03-21T01:34:14.012Z,43616.97
2023-03-21T01:35:16.640Z,43746.93
2023-03-21T01:36:22.676Z,48819.65
2023-03-21T01:37:23.727Z,49838.78
2023-03-21T01:38:26.699Z,49985.96
2023-03-21T01:39:29.782Z,48752.58
2023-03-21T01:40:32.346Z,46791.18
2023-03-21T01:41:44.431Z,47963.90
2023-03-21T01:42:39.939Z,47326.46
2023-03-21T01:43:42.506Z,51673.47
2023-03-21T01:44:45.504Z,55551.97
2023-03-21T01:45:48.557Z,55711.40
2023-03-21T01:47:09.273Z,56414.37
2023-03-21T01:47:55.691Z,60032.49
2023-03-21T01:48:59.331Z,59950.18
2023-03-21T01:50:02.322Z,54899.27
2023-03-21T01:51:05.087Z,54786.99
2023-03-21T01:52:14.022Z,55245.16
2023-03-21T01:53:12.071Z,54463.20
2023-03-21T01:54:14.939Z,58082.55
2023-03-21T01:55:18.046Z,59269.66
2023-03-21T01:56:20.991Z,55094.77
2023-03-21T01:57:25.813Z,53056.07
2023-03-21T01:58:28.282Z,53856.79
2023-03-21T01:59:31.055Z,49734.65
2023-03-21T02:00:34.316Z,48080.99
2023-03-21T02:01:37.111Z,45746.83
2023-03-21T02:02:39.981Z,46047.90
2023-03-21T02:03:42.831Z,46572.08
2023-03-21T02:04:45.423Z,47188.38
2023-03-21T02:05:47.996Z,46504.05
2023-03-21T02:06:50.771Z,47315.46
2023-03-21T02:07:53.552Z,49140.98
2023-03-21T02:08:56.109Z,48448.30
2023-03-21T02:09:58.669Z,47393.50
2023-03-21T02:11:01.201Z,48914.74
2023-03-21T02:12:04.114Z,50788.07
2023-03-21T02:13:06.992Z,48598.44
2023-03-21T02:14:11.511Z,49624.52
2023-03-21T02:15:14.486Z,47992.92
2023-03-21T02:16:17.633Z,47219.40
2023-03-21T02:17:20.456Z,45409.77
2023-03-21T02:18:23.305Z,50436.56
2023-03-21T02:19:34.151Z,49265.11
2023-03-21T02:20:30.390Z,47924.87
2023-03-21T02:21:33.361Z,48923.75
2023-03-21T02:22:36.138Z,49260.10
2023-03-21T02:23:39.020Z,45710.82
2023-03-21T02:24:46.254Z,42574.46
2023-03-21T02:25:46.405Z,41691.09
2023-03-21T02:26:57.985Z,44930.75
2023-03-21T02:27:53.687Z,49526.40
2023-03-21T02:28:56.664Z,48019.94
2023-03-21T02:29:59.542Z,45745.83
2023-03-21T02:31:02.469Z,44344.79
2023-03-21T02:32:16.498Z,47858.82
2023-03-21T02:33:10.013Z,46255.96
2023-03-21T02:34:13.104Z,44715.75
2023-03-21T02:35:15.959Z,44145.83
2023-03-21T02:36:18.896Z,47952.89
2023-03-21T02:37:28.934Z,52789.53
2023-03-21T02:38:26.447Z,52144.30
2023-03-21T02:39:29.206Z,50633.84
2023-03-21T02:40:32.080Z,50770.04
2023-03-21T02:41:40.144Z,47808.79
2023-03-21T02:42:39.379Z,54684.74
2023-03-21T02:43:42.360Z,48371.23
2023-03-21T02:44:45.114Z,46626.11
2023-03-21T02:45:48.032Z,45828.85
2023-03-21T02:46:59.739Z,42650.42
2023-03-21T02:47:55.610Z,40662.08
2023-03-21T02:48:58.285Z,43936.88
2023-03-21T02:50:01.117Z,48980.81
2023-03-21T02:51:03.905Z,40980.75
2023-03-21T02:52:15.672Z,40019.83
2023-03-21T02:53:10.764Z,38730.66
2023-03-21T02:54:42.057Z,37190.39
2023-03-21T02:55:17.746Z,33876.34
2023-03-21T02:56:20.419Z,32789.55
2023-03-21T02:57:25.508Z,33696.84
2023-03-21T02:58:28.214Z,35783.42
2023-03-21T02:59:30.777Z,37397.99
2023-03-21T03:00:33.426Z,42456.54
2023-03-21T03:01:36.204Z,46259.96
2023-03-21T03:02:38.891Z,45733.82
2023-03-21T03:03:41.667Z,45226.76
2023-03-21T03:04:44.365Z,44122.83
2023-03-21T03:05:47.420Z,44492.77
2023-03-21T03:06:50.291Z,46626.11
2023-03-21T03:07:53.165Z,52746.45
2023-03-21T03:09:02.251Z,48281.16
2023-03-21T03:10:01.787Z,49404.26
2023-03-21T03:11:05.269Z,48037.96
2023-03-21T03:12:08.367Z,51464.12
2023-03-21T03:13:11.127Z,48570.41
2023-03-21T03:14:38.507Z,49075.91
2023-03-21T03:15:19.130Z,48526.37
2023-03-21T03:16:21.908Z,47842.81
2023-03-21T03:17:26.295Z,49062.89
2023-03-21T03:18:29.190Z,48979.80
2023-03-21T03:19:36.663Z,50113.12
2023-03-21T03:20:37.062Z,48788.62
2023-03-21T03:21:39.968Z,50296.37
2023-03-21T03:22:42.940Z,53564.14
2023-03-21T03:23:45.714Z,54390.03
2023-03-21T03:24:49.296Z,51555.27
2023-03-21T03:25:52.175Z,54387.02
2023-03-21T03:26:54.852Z,56311.07
2023-03-21T03:27:57.729Z,56364.23
2023-03-21T03:29:00.496Z,55848.77
2023-03-21T03:30:03.565Z,56207.78
2023-03-21T03:31:09.519Z,59424.23
2023-03-21T03:32:10.551Z,57311.07
2023-03-21T03:33:13.314Z,56383.28
2023-03-21T03:34:15.911Z,55139.89
2023-03-21T03:35:19.166Z,54265.73
2023-03-21T03:36:31.650Z,53351.68
2023-03-21T03:37:26.046Z,52015.07
2023-03-21T03:38:28.713Z,56261.93
2023-03-21T03:39:31.381Z,59829.73
2023-03-21T03:40:35.862Z,59411.18
2023-03-21T03:42:03.012Z,57610.01
2023-03-21T03:42:42.466Z,61027.40
2023-03-21T03:43:45.132Z,62692.50
2023-03-21T03:44:47.700Z,60267.39
2023-03-21T03:45:50.680Z,58667.54
2023-03-21T03:46:53.708Z,58067.50
2023-03-21T03:47:57.668Z,55323.36
2023-03-21T03:49:00.338Z,51028.43
2023-03-21T03:50:02.995Z,51996.04
2023-03-21T03:51:05.971Z,52276.55
2023-03-21T03:52:08.540Z,49885.84
2023-03-21T03:53:18.132Z,50994.38
2023-03-21T03:54:15.311Z,51031.43
2023-03-21T03:55:18.128Z,51130.59
2023-03-21T03:56:21.072Z,51268.80
2023-03-21T03:57:23.628Z,51091.53
2023-03-21T03:58:39.441Z,50055.05
2023-03-21T03:59:30.508Z,53117.19
2023-03-21T04:00:33.386Z,51685.49
2023-03-21T04:01:36.270Z,52418.81
2023-03-21T04:02:39.084Z,54126.41
2023-03-21T04:03:49.841Z,51940.94
2023-03-21T04:04:46.247Z,53965.04
2023-03-21T04:05:49.097Z,54212.61
2023-03-21T04:06:52.168Z,53804.67
2023-03-21T04:07:54.944Z,54070.28
2023-03-21T04:08:58.113Z,54825.09
2023-03-21T04:10:01.002Z,56093.46
2023-03-21T04:11:04.080Z,54748.90
2023-03-21T04:12:07.156Z,52647.25
2023-03-21T04:13:10.146Z,55370.48
2023-03-21T04:14:13.028Z,59173.32
2023-03-21T04:15:15.992Z,61592.73
2023-03-21T04:16:19.124Z,58830.10
2023-03-21T04:17:22.454Z,59173.32
2023-03-21T04:18:25.328Z,61107.73
2023-03-21T04:19:28.206Z,62031.60
2023-03-21T04:20:43.209Z,60759.32
2023-03-21T04:21:35.797Z,59466.38
2023-03-21T04:22:38.671Z,61889.99
2023-03-21T04:23:41.474Z,65881.02
2023-03-21T04:24:44.213Z,63631.81
2023-03-21T04:25:55.901Z,60779.40
2023-03-21T04:26:51.495Z,59118.12
2023-03-21T04:27:54.503Z,56128.55
2023-03-21T04:28:57.365Z,54581.49
2023-03-21T04:30:00.144Z,52575.11
2023-03-21T04:31:08.893Z,53389.77
2023-03-21T04:32:07.364Z,54223.63
2023-03-21T04:33:10.590Z,54584.50
2023-03-21T04:34:13.464Z,56696.20
2023-03-21T04:35:16.247Z,58159.81
2023-03-21T04:36:19.124Z,58109.64
2023-03-21T04:37:23.216Z,68668.67
2023-03-21T04:38:25.785Z,67258.52
2023-03-21T04:39:28.452Z,60736.23
2023-03-21T04:40:31.015Z,58194.93
2023-03-21T04:41:33.800Z,56290.02
2023-03-21T04:42:36.559Z,56169.67
2023-03-21T04:43:39.232Z,54010.14
2023-03-21T04:44:41.899Z,51721.55
2023-03-21T04:45:44.716Z,52575.11
2023-03-21T04:46:47.476Z,54318.86
2023-03-21T04:47:50.519Z,53637.30
2023-03-21T04:48:53.809Z,57395.33
2023-03-21T04:49:57.195Z,57886.91
2023-03-21T04:51:00.276Z,54536.38
2023-03-21T04:52:03.353Z,53800.66
2023-03-21T04:53:06.229Z,54229.64
2023-03-21T04:55:10.698Z,60890.85
2023-03-21T04:56:13.629Z,60889.85
2023-03-21T04:57:16.501Z,58411.66
2023-03-21T04:58:19.372Z,60239.29
2023-03-21T04:59:22.550Z,64019.65
2023-03-21T05:00:25.641Z,63962.37
2023-03-21T05:01:28.485Z,65828.75
2023-03-21T05:02:31.401Z,63585.59
2023-03-21T05:03:34.321Z,64198.51
2023-03-21T05:04:37.538Z,66220.83
2023-03-21T05:05:40.524Z,65413.59
2023-03-21T05:06:43.391Z,64631.64
2023-03-21T05:07:46.381Z,63101.34
2023-03-21T05:08:49.156Z,63973.43
2023-03-21T05:09:52.631Z,64809.52
2023-03-21T05:10:55.814Z,65933.30
2023-03-21T05:11:59.985Z,72057.30
2023-03-21T05:13:02.588Z,75613.08
2023-03-21T05:14:05.564Z,78307.69
2023-03-21T05:15:08.951Z,75649.35
2023-03-21T05:16:12.029Z,73740.11
2023-03-21T05:17:15.021Z,69894.17
2023-03-21T05:18:17.895Z,68358.84
2023-03-21T05:19:20.855Z,67166.00
2023-03-21T05:20:23.835Z,65583.47
2023-03-21T05:21:27.126Z,62443.39
2023-03-21T05:22:29.789Z,61662.02
2023-03-21T05:23:36.047Z,60985.23
2023-03-21T05:24:39.644Z,59252.60
2023-03-21T05:25:42.301Z,58258.14
2023-03-21T05:26:45.177Z,58059.48
2023-03-21T05:27:48.063Z,59199.41
2023-03-21T05:28:51.229Z,59914.04
2023-03-21T05:29:53.906Z,58972.60
2023-03-21T05:30:58.837Z,59069.95
2023-03-21T05:32:01.608Z,60568.57
2023-03-21T05:33:04.886Z,62767.84
2023-03-21T05:34:07.979Z,61273.41
2023-03-21T05:35:10.837Z,59562.73
2023-03-21T05:36:13.438Z,59191.38
2023-03-21T05:37:16.456Z,58715.70
2023-03-21T05:38:19.417Z,58132.72
2023-03-21T05:39:22.230Z,57873.87
2023-03-21T05:40:25.209Z,57054.28
2023-03-21T05:41:28.394Z,57467.56
2023-03-21T05:42:31.077Z,58265.16
2023-03-21T05:43:33.641Z,59188.37
2023-03-21T05:44:36.401Z,59199.41
2023-03-21T05:45:39.296Z,59824.71
2023-03-21T05:46:42.563Z,61145.88
2023-03-21T05:47:45.492Z,62058.71
2023-03-21T05:48:48.438Z,61088.65
2023-03-21T05:49:51.311Z,61548.55
2023-03-21T05:50:54.170Z,63544.39
2023-03-21T05:51:57.342Z,63929.21
2023-03-21T05:53:00.214Z,62523.75
2023-03-21T05:54:03.094Z,61713.24
2023-03-21T05:55:05.964Z,63349.49
2023-03-21T05:56:09.160Z,63415.80
2023-03-21T05:57:12.754Z,62462.48
2023-03-21T05:58:15.417Z,61200.11
2023-03-21T05:59:18.495Z,61605.79
2023-03-21T06:00:21.365Z,61876.93
2023-03-21T06:01:24.352Z,62780.89
2023-03-21T06:02:27.652Z,63806.63
2023-03-21T06:03:30.595Z,66701.42
2023-03-21T06:04:34.421Z,69302.50
2023-03-21T06:05:40.654Z,70095.44
2023-03-21T06:06:43.531Z,69515.81
2023-03-21T06:07:46.716Z,66278.13
2023-03-21T06:08:49.648Z,66388.73
2023-03-21T06:09:53.078Z,69656.69
2023-03-21T06:10:55.856Z,77313.50
2023-03-21T06:11:58.831Z,80581.32
2023-03-21T06:13:01.804Z,81275.57
2023-03-21T06:14:04.693Z,78862.36
2023-03-21T06:15:07.755Z,74146.06
2023-03-21T06:16:10.975Z,73096.52
2023-03-21T06:17:14.133Z,68473.52
2023-03-21T06:18:17.106Z,69026.83
2023-03-21T06:19:19.876Z,69847.88
2023-03-21T06:20:22.538Z,71604.25
2023-03-21T06:21:26.875Z,70385.27
2023-03-21T06:22:29.519Z,70480.89
2023-03-21T06:23:32.294Z,69348.78
2023-03-21T06:24:36.863Z,69725.11
2023-03-21T06:25:39.721Z,67475.73
2023-03-21T06:26:42.559Z,67477.75
2023-03-21T06:27:45.225Z,69526.88
2023-03-21T06:28:48.096Z,70528.19
2023-03-21T06:29:50.864Z,68423.22
2023-03-21T06:30:53.537Z,68621.39
2023-03-21T06:31:56.312Z,72003.94
2023-03-21T06:32:59.081Z,73233.48
2023-03-21T06:34:01.871Z,69474.56
2023-03-21T06:35:04.830Z,67658.78
2023-03-21T06:36:08.055Z,67422.44
2023-03-21T06:37:11.091Z,70147.77
2023-03-21T06:38:13.761Z,70126.63
2023-03-21T06:39:16.749Z,66723.55
2023-03-21T06:40:19.835Z,64251.77
2023-03-21T06:41:23.209Z,60639.85
2023-03-21T06:42:25.978Z,60532.43
2023-03-21T06:43:28.848Z,60375.81
2023-03-21T06:44:31.940Z,61420.01
2023-03-21T06:45:36.025Z,63617.74
2023-03-21T06:46:39.126Z,65772.45
2023-03-21T06:47:42.134Z,63864.91
2023-03-21T06:48:45.583Z,63041.07
2023-03-21T06:49:48.762Z,63317.34
2023-03-21T06:50:54.306Z,63832.76
2023-03-21T06:51:57.069Z,66844.21
2023-03-21T06:53:00.559Z,67955.48
2023-03-21T06:54:03.337Z,67968.56
2023-03-21T06:55:06.413Z,67767.41
2023-03-21T06:56:08.982Z,69065.05
2023-03-21T06:57:11.850Z,68941.31
2023-03-21T06:58:14.728Z,68658.61
2023-03-21T06:59:17.609Z,64807.51
2023-03-21T07:00:20.892Z,63584.58
2023-03-21T07:01:23.863Z,63461.00
2023-03-21T07:02:26.875Z,64377.38
2023-03-21T07:03:32.397Z,65846.84
2023-03-21T07:04:35.874Z,66538.54
2023-03-21T07:05:40.180Z,66668.25
2023-03-21T07:06:43.482Z,69298.48
2023-03-21T07:07:46.335Z,67487.80
2023-03-21T07:08:49.897Z,64278.90
2023-03-21T07:09:52.905Z,63011.94
2023-03-21T07:11:01.342Z,64225.64
2023-03-21T07:12:04.281Z,62876.32
2023-03-21T07:13:07.261Z,64204.54
2023-03-21T07:14:10.546Z,67532.05
2023-03-21T07:15:13.730Z,69976.69
2023-03-21T07:16:17.401Z,70380.24
2023-03-21T07:17:20.709Z,75747.11
2023-03-21T07:18:23.689Z,74583.28
2023-03-21T07:19:26.593Z,73668.59
2023-03-21T07:20:29.649Z,75166.66
2023-03-21T07:21:32.824Z,79165.95
2023-03-21T07:22:36.244Z,82640.20
2023-03-21T07:23:39.285Z,84052.77
2023-03-21T07:24:42.991Z,87703.07
2023-03-21T07:25:49.160Z,90788.16
2023-03-21T07:26:52.555Z,94215.77
2023-03-21T07:27:55.497Z,94305.87
2023-03-21T07:28:58.678Z,95393.38
2023-03-21T07:30:01.353Z,94897.17
2023-03-21T07:31:04.255Z,94484.06
2023-03-21T07:32:07.430Z,94577.21
2023-03-21T07:33:10.199Z,95719.48
2023-03-21T07:34:13.377Z,95194.89
2023-03-21T07:35:16.459Z,95607.06
2023-03-21T07:36:19.262Z,96493.33
2023-03-21T07:37:23.212Z,96760.77
2023-03-21T07:38:26.195Z,95736.70
2023-03-21T07:39:28.854Z,95654.66
2023-03-21T07:40:31.527Z,96807.37
2023-03-21T07:41:34.404Z,97441.59
2023-03-21T07:42:37.285Z,98090.11
2023-03-21T07:43:39.756Z,97960.41
2023-03-21T07:44:42.426Z,97697.95
2023-03-21T07:45:45.190Z,97441.59
2023-03-21T07:46:48.116Z,98609.00
2023-03-21T07:47:51.216Z,98479.27
2023-03-21T07:48:54.212Z,97830.70
2023-03-21T07:49:57.189Z,96856.00
2023-03-21T07:51:00.101Z,94446.59
2023-03-21T07:52:04.671Z,93576.98
2023-03-21T07:53:06.966Z,93347.20
2023-03-21T07:54:09.720Z,93049.63
2023-03-21T07:55:12.804Z,93055.70
2023-03-21T07:56:16.122Z,93935.33
2023-03-21T07:57:19.172Z,94115.53
2023-03-21T07:58:22.050Z,93910.02
2023-03-21T07:59:24.706Z,93850.30
2023-03-21T08:00:27.482Z,93656.95
2023-03-21T08:01:30.152Z,93079.98
2023-03-21T08:02:34.124Z,92784.45
2023-03-21T08:03:37.065Z,92814.81
2023-03-21T08:04:39.904Z,91657.18
2023-03-21T08:05:42.788Z,92681.23
2023-03-21T08:06:45.851Z,91723.95
2023-03-21T08:07:48.728Z,91351.63
2023-03-21T08:08:51.503Z,91349.61
2023-03-21T08:09:55.500Z,92267.33
2023-03-21T08:10:58.374Z,91595.46
2023-03-21T08:12:01.324Z,91970.84
2023-03-21T08:13:04.124Z,92488.95
2023-03-21T08:14:07.105Z,92708.55
2023-03-21T08:15:09.702Z,93187.28
2023-03-21T08:16:12.243Z,92708.55
2023-03-21T08:17:14.798Z,93419.06
2023-03-21T08:18:17.579Z,93830.05
2023-03-21T08:19:20.248Z,96271.49
2023-03-21T08:20:22.813Z,97960.41
2023-03-21T08:21:25.391Z,99646.98
2023-03-21T08:22:33.508Z,101074.63
2023-03-21T08:23:36.044Z,101983.39
2023-03-21T08:24:39.230Z,102632.64
2023-03-21T08:25:41.907Z,103281.98
2023-03-21T08:26:44.588Z,103801.54
2023-03-21T08:27:47.344Z,104580.98
2023-03-21T08:28:50.318Z,104970.77
2023-03-21T08:29:53.697Z,105100.71
2023-03-21T08:30:56.777Z,104451.08
2023-03-21T08:31:59.575Z,104061.34
2023-03-21T08:33:02.432Z,103541.75
2023-03-21T08:34:05.302Z,103152.11
2023-03-21T08:35:08.175Z,102113.23
2023-03-21T08:36:11.092Z,101593.90
2023-03-21T08:37:13.935Z,100685.22
2023-03-21T08:38:16.750Z,100815.02
2023-03-21T08:39:19.615Z,100425.63
2023-03-21T08:40:22.558Z,100295.84
2023-03-21T08:41:25.325Z,100685.22
2023-03-21T08:42:28.202Z,101853.55
2023-03-21T08:43:31.071Z,101983.39
2023-03-21T08:44:33.844Z,101983.39
2023-03-21T08:45:37.522Z,101983.39
2023-03-21T08:46:40.478Z,102113.23
2023-03-21T08:47:43.321Z,101723.73
2023-03-21T08:48:46.068Z,102243.08
2023-03-21T08:49:48.931Z,101204.44
2023-03-21T08:50:51.915Z,101204.44
2023-03-21T08:51:54.795Z,100815.02
2023-03-21T08:52:57.458Z,100815.02
2023-03-21T08:54:00.332Z,100425.63
2023-03-21T08:55:03.218Z,100295.84
2023-03-21T08:56:06.180Z,101204.44
2023-03-21T08:57:09.073Z,101074.63
2023-03-21T08:58:11.849Z,100295.84
2023-03-21T08:59:14.699Z,99776.74
2023-03-21T09:00:22.919Z,98868.47
2023-03-21T09:01:25.735Z,98868.47
2023-03-21T09:02:28.451Z,100166.06
2023-03-21T09:03:32.731Z,100944.82
2023-03-21T09:04:35.607Z,101723.73
2023-03-21T09:05:38.726Z,101593.90
2023-03-21T09:06:42.004Z,102113.23
2023-03-21T09:07:44.779Z,103022.23
2023-03-21T09:08:47.758Z,103801.54
2023-03-21T09:09:58.086Z,103671.64
2023-03-21T09:10:54.842Z,103931.44
2023-03-21T09:11:57.615Z,103411.87
2023-03-21T09:13:00.180Z,103931.44
2023-03-21T09:14:02.849Z,104061.34
2023-03-21T09:15:05.513Z,104321.16
2023-03-21T09:16:08.345Z,104061.34
2023-03-21T09:17:11.353Z,103931.44
2023-03-21T09:18:13.937Z,103411.87
2023-03-21T09:19:18.239Z,103411.87
2023-03-21T09:20:20.849Z,103411.87
2023-03-21T09:21:23.579Z,102892.36
2023-03-21T09:22:26.248Z,102113.23
2023-03-21T09:23:28.909Z,101593.90
2023-03-21T09:24:31.380Z,102243.08
2023-03-21T09:25:33.960Z,102632.64
2023-03-21T09:26:36.621Z,102632.64
2023-03-21T09:27:39.392Z,102632.64
2023-03-21T09:28:42.258Z,102762.50
2023-03-21T09:29:45.155Z,102243.08
2023-03-21T09:30:47.706Z,101593.90
2023-03-21T09:31:50.781Z,101723.73
2023-03-21T09:32:55.327Z,102243.08
2023-03-21T09:33:58.010Z,102372.93
2023-03-21T09:35:00.639Z,102243.08
2023-03-21T09:36:03.357Z,102502.78
2023-03-21T09:37:06.592Z,102502.78
2023-03-21T09:38:09.476Z,102372.93
2023-03-21T09:39:12.340Z,103022.23
2023-03-21T09:40:15.514Z,103671.64
2023-03-21T09:41:18.804Z,103541.75
2023-03-21T09:42:21.990Z,102632.64
2023-03-21T09:43:24.975Z,101593.90
2023-03-21T09:44:27.842Z,100685.22
2023-03-21T09:45:30.610Z,100166.06
2023-03-21T09:46:33.546Z,100036.29
2023-03-21T09:47:36.364Z,99127.95
2023-03-21T09:48:46.945Z,99517.22
2023-03-21T09:49:43.957Z,98868.47
2023-03-21T09:50:46.727Z,99646.98
2023-03-21T09:51:51.139Z,99646.98
2023-03-21T09:52:53.935Z,100425.63
2023-03-21T09:53:57.217Z,100425.63
2023-03-21T09:55:02.934Z,101334.25
2023-03-21T09:56:05.811Z,101723.73
2023-03-21T09:57:08.583Z,100425.63
2023-03-21T09:58:11.259Z,99127.95
2023-03-21T09:59:13.821Z,98868.47
2023-03-21T10:00:16.592Z,99257.70
2023-03-21T10:01:19.336Z,99646.98
2023-03-21T10:02:21.930Z,99257.70
2023-03-21T10:03:24.697Z,99127.95
2023-03-21T10:04:27.466Z,98998.21
2023-03-21T10:05:30.155Z,98479.27
2023-03-21T10:06:32.831Z,97960.41
2023-03-21T10:07:35.589Z,97182.22
2023-03-21T10:08:38.466Z,96301.88
2023-03-21T10:09:41.643Z,97441.59
2023-03-21T10:10:44.425Z,99517.22
2023-03-21T10:11:47.298Z,99776.74
2023-03-21T10:12:50.063Z,99646.98
2023-03-21T10:13:52.852Z,100425.63
2023-03-21T10:14:57.606Z,101983.39
2023-03-21T10:16:00.312Z,101723.73
2023-03-21T10:17:03.500Z,101593.90
2023-03-21T10:18:06.275Z,101204.44
2023-03-21T10:19:09.323Z,100425.63
2023-03-21T10:20:12.385Z,99776.74
2023-03-21T10:21:37.385Z,99257.70
2023-03-21T10:22:21.261Z,98998.21
2023-03-21T10:23:24.140Z,98868.47
2023-03-21T10:24:27.424Z,98998.21
2023-03-21T10:25:31.112Z,99517.22
2023-03-21T10:26:33.996Z,98998.21
2023-03-21T10:27:36.872Z,98998.21
2023-03-21T10:28:52.498Z,97960.41
2023-03-21T10:29:44.063Z,97182.22
2023-03-21T10:30:47.048Z,96363.67
2023-03-21T10:31:49.927Z,96150.95
2023-03-21T10:32:52.810Z,99517.22
2023-03-21T10:33:55.843Z,99906.52
2023-03-21T10:34:58.930Z,99517.22
2023-03-21T10:36:02.681Z,99387.46
2023-03-21T10:37:07.128Z,100555.42
2023-03-21T10:38:10.100Z,100685.22
2023-03-21T10:39:13.489Z,100944.82
2023-03-21T10:40:17.093Z,100425.63
2023-03-21T10:41:20.577Z,101204.44
2023-03-21T10:42:23.257Z,101593.90
2023-03-21T10:43:25.824Z,101593.90
2023-03-21T10:44:28.392Z,100944.82
2023-03-21T10:45:31.067Z,100944.82
2023-03-21T10:46:36.146Z,101204.44
2023-03-21T10:47:39.774Z,101723.73
2023-03-21T10:48:42.544Z,101723.73
2023-03-21T10:50:06.323Z,101074.63
2023-03-21T10:50:50.205Z,100295.84
2023-03-21T10:51:52.811Z,99517.22
2023-03-21T10:52:55.577Z,98219.83
2023-03-21T10:53:58.455Z,97700.99
2023-03-21T10:55:02.143Z,97441.59
2023-03-21T10:56:05.028Z,98479.27
2023-03-21T10:57:07.907Z,98609.00
2023-03-21T10:58:12.809Z,99776.74
2023-03-21T10:59:15.799Z,99906.52
2023-03-21T11:00:18.814Z,100944.82
2023-03-21T11:01:21.481Z,101983.39
2023-03-21T11:02:24.830Z,101593.90
2023-03-21T11:03:27.610Z,100555.42
2023-03-21T11:04:30.774Z,100166.06
2023-03-21T11:05:34.264Z,99646.98
2023-03-21T11:06:37.257Z,99517.22
2023-03-21T11:07:40.726Z,100815.02
2023-03-21T11:08:44.145Z,102113.23
2023-03-21T11:09:47.044Z,103281.98
2023-03-21T11:10:50.380Z,104061.34
2023-03-21T11:11:53.767Z,105230.65
2023-03-21T11:12:56.652Z,106920.25
2023-03-21T11:13:59.319Z,107960.35
2023-03-21T11:15:02.492Z,108480.50
2023-03-21T11:16:05.278Z,108740.61
2023-03-21T11:17:08.500Z,109000.72
2023-03-21T11:18:12.246Z,110041.36
2023-03-21T11:19:15.734Z,110431.66
2023-03-21T11:20:20.970Z,111342.52
2023-03-21T11:21:24.041Z,111863.11
2023-03-21T11:22:27.129Z,112644.11
2023-03-21T11:23:30.219Z,113164.86
2023-03-21T11:24:33.432Z,113946.10
2023-03-21T11:25:36.867Z,114467.02
2023-03-21T11:26:39.863Z,114857.75
2023-03-21T11:27:42.344Z,115118.26
2023-03-21T11:28:45.600Z,115509.05
2023-03-21T11:29:48.995Z,115639.32
2023-03-21T11:30:51.831Z,115769.59
2023-03-21T11:31:54.656Z,115899.87
2023-03-21T11:32:57.530Z,115899.87
2023-03-21T11:34:00.201Z,115769.59
2023-03-21T11:35:02.950Z,116160.45
2023-03-21T11:36:05.984Z,116421.05
2023-03-21T11:37:08.907Z,116551.34
2023-03-21T11:38:13.398Z,116681.65
2023-03-21T11:39:16.009Z,116811.96
2023-03-21T11:40:18.671Z,116942.28
2023-03-21T11:41:21.342Z,116942.28
2023-03-21T11:42:25.833Z,116943.30
2023-03-21T11:43:28.333Z,116943.30
2023-03-21T11:44:31.097Z,116943.30
2023-03-21T11:45:33.775Z,116943.30
2023-03-21T11:46:36.568Z,116943.30
2023-03-21T11:47:39.290Z,116943.30
2023-03-21T11:48:42.286Z,116943.30
2023-03-21T11:49:44.955Z,116943.30
2023-03-21T11:50:47.624Z,116943.30
2023-03-21T11:51:50.687Z,116943.30
2023-03-21T11:52:53.563Z,116943.30
2023-03-21T11:53:56.537Z,116943.30
2023-03-21T11:54:59.318Z,116943.30
2023-03-21T11:56:02.193Z,116943.30
2023-03-21T11:57:05.467Z,116943.30
2023-03-21T11:58:14.708Z,116943.30
2023-03-21T11:59:16.126Z,116943.30
2023-03-21T12:01:26.904Z,116943.30
2023-03-21T12:02:29.723Z,116943.30
2023-03-21T12:03:47.122Z,116943.30
2023-03-21T12:04:40.405Z,116943.30
2023-03-21T12:05:43.209Z,116943.30
2023-03-21T12:06:46.391Z,116943.30
2023-03-21T12:07:49.527Z,116943.30
2023-03-21T12:08:52.565Z,116943.30
2023-03-21T12:09:55.525Z,116943.30
2023-03-21T12:10:58.604Z,116943.30
2023-03-21T12:12:01.689Z,116943.30
2023-03-21T12:13:04.766Z,116942.28
2023-03-21T12:14:07.745Z,116942.28
2023-03-21T12:15:10.940Z,116942.28
2023-03-21T12:16:13.991Z,116811.96
2023-03-21T12:17:16.707Z,116681.65
2023-03-21T12:18:19.361Z,116551.34